sensor_id;sensor_type;location;lat;lon;timestamp;temperature;humidity
77056;SHT30;67471;44.918;8.614;2023-12-20T00:01:55;4.27;75.63
77056;SHT30;67471;44.918;8.614;2023-12-20T00:04:59;4.24;75.77
77056;SHT30;67471;44.918;8.614;2023-12-20T00:08:03;4.10;76.54
77056;SHT30;67471;44.918;8.614;2023-12-20T00:11:08;3.87;77.83
77056;SHT30;67471;44.918;8.614;2023-12-20T00:14:12;3.93;78.29
77056;SHT30;67471;44.918;8.614;2023-12-20T00:17:16;4.12;77.34
77056;SHT30;67471;44.918;8.614;2023-12-20T00:20:20;4.14;77.02
77056;SHT30;67471;44.918;8.614;2023-12-20T00:23:23;4.08;77.41
77056;SHT30;67471;44.918;8.614;2023-12-20T00:26:27;4.07;77.61
77056;SHT30;67471;44.918;8.614;2023-12-20T00:29:31;4.19;76.82
77056;SHT30;67471;44.918;8.614;2023-12-20T00:32:35;4.14;76.95
77056;SHT30;67471;44.918;8.614;2023-12-20T00:35:39;4.15;77.16
77056;SHT30;67471;44.918;8.614;2023-12-20T00:38:43;4.18;77.23
77056;SHT30;67471;44.918;8.614;2023-12-20T00:41:47;4.17;77.45
77056;SHT30;67471;44.918;8.614;2023-12-20T00:44:50;4.17;77.46
77056;SHT30;67471;44.918;8.614;2023-12-20T00:47:54;4.11;77.83
77056;SHT30;67471;44.918;8.614;2023-12-20T00:50:58;4.17;77.42
77056;SHT30;67471;44.918;8.614;2023-12-20T00:54:01;4.22;77.21
77056;SHT30;67471;44.918;8.614;2023-12-20T00:57:06;4.17;77.42
77056;SHT30;67471;44.918;8.614;2023-12-20T01:00:10;4.21;77.76
77056;SHT30;67471;44.918;8.614;2023-12-20T01:03:14;4.25;77.36
77056;SHT30;67471;44.918;8.614;2023-12-20T01:06:18;4.27;77.33
77056;SHT30;67471;44.918;8.614;2023-12-20T01:09:22;4.18;77.65
77056;SHT30;67471;44.918;8.614;2023-12-20T01:12:30;4.25;77.62
77056;SHT30;67471;44.918;8.614;2023-12-20T01:15:34;4.22;77.71
77056;SHT30;67471;44.918;8.614;2023-12-20T01:18:38;4.28;77.36
77056;SHT30;67471;44.918;8.614;2023-12-20T01:21:42;4.25;77.17
77056;SHT30;67471;44.918;8.614;2023-12-20T01:24:45;4.22;77.14
77056;SHT30;67471;44.918;8.614;2023-12-20T01:27:50;4.28;76.90
77056;SHT30;67471;44.918;8.614;2023-12-20T01:30:53;4.27;76.57
77056;SHT30;67471;44.918;8.614;2023-12-20T01:33:57;4.14;76.61
77056;SHT30;67471;44.918;8.614;2023-12-20T01:37:01;4.05;75.69
77056;SHT30;67471;44.918;8.614;2023-12-20T01:40:05;3.95;76.33
77056;SHT30;67471;44.918;8.614;2023-12-20T01:43:09;3.86;76.78
77056;SHT30;67471;44.918;8.614;2023-12-20T01:46:15;3.69;77.87
77056;SHT30;67471;44.918;8.614;2023-12-20T01:49:21;3.73;77.76
77056;SHT30;67471;44.918;8.614;2023-12-20T01:52:25;3.76;77.18
77056;SHT30;67471;44.918;8.614;2023-12-20T01:55:31;3.56;78.87
77056;SHT30;67471;44.918;8.614;2023-12-20T01:58:46;3.80;77.97
77056;SHT30;67471;44.918;8.614;2023-12-20T02:01:51;3.95;77.25
77056;SHT30;67471;44.918;8.614;2023-12-20T02:04:54;3.86;77.66
77056;SHT30;67471;44.918;8.614;2023-12-20T02:07:58;3.93;77.60
77056;SHT30;67471;44.918;8.614;2023-12-20T02:11:02;3.93;77.45
77056;SHT30;67471;44.918;8.614;2023-12-20T02:14:06;3.87;78.14
77056;SHT30;67471;44.918;8.614;2023-12-20T02:17:09;4.02;77.31
77056;SHT30;67471;44.918;8.614;2023-12-20T02:20:13;4.00;77.40
77056;SHT30;67471;44.918;8.614;2023-12-20T02:23:17;4.08;77.03
77056;SHT30;67471;44.918;8.614;2023-12-20T02:26:21;4.24;76.40
77056;SHT30;67471;44.918;8.614;2023-12-20T02:29:25;4.01;77.06
77056;SHT30;67471;44.918;8.614;2023-12-20T02:32:30;3.97;77.14
77056;SHT30;67471;44.918;8.614;2023-12-20T02:35:33;3.93;77.35
77056;SHT30;67471;44.918;8.614;2023-12-20T02:38:37;4.02;77.21
77056;SHT30;67471;44.918;8.614;2023-12-20T02:41:41;4.01;77.28
77056;SHT30;67471;44.918;8.614;2023-12-20T02:44:45;4.12;76.22
77056;SHT30;67471;44.918;8.614;2023-12-20T02:47:49;4.04;76.14
77056;SHT30;67471;44.918;8.614;2023-12-20T02:50:52;3.95;75.79
77056;SHT30;67471;44.918;8.614;2023-12-20T02:53:56;3.90;76.22
77056;SHT30;67471;44.918;8.614;2023-12-20T02:57:00;3.90;75.95
77056;SHT30;67471;44.918;8.614;2023-12-20T03:00:04;3.74;76.40
77056;SHT30;67471;44.918;8.614;2023-12-20T03:03:08;3.70;77.07
77056;SHT30;67471;44.918;8.614;2023-12-20T03:06:16;3.69;77.21
77056;SHT30;67471;44.918;8.614;2023-12-20T03:09:20;3.76;76.78
77056;SHT30;67471;44.918;8.614;2023-12-20T03:12:24;3.66;77.28
77056;SHT30;67471;44.918;8.614;2023-12-20T03:15:28;3.64;77.18
77056;SHT30;67471;44.918;8.614;2023-12-20T03:18:32;3.64;76.74
77056;SHT30;67471;44.918;8.614;2023-12-20T03:21:35;3.67;76.64
77056;SHT30;67471;44.918;8.614;2023-12-20T03:24:39;3.09;79.02
77056;SHT30;67471;44.918;8.614;2023-12-20T03:27:43;3.44;77.48
77056;SHT30;67471;44.918;8.614;2023-12-20T03:30:47;3.48;78.08
77056;SHT30;67471;44.918;8.614;2023-12-20T03:33:51;3.48;78.14
77056;SHT30;67471;44.918;8.614;2023-12-20T03:36:57;3.69;77.78
77056;SHT30;67471;44.918;8.614;2023-12-20T03:40:01;3.90;76.95
77056;SHT30;67471;44.918;8.614;2023-12-20T03:43:05;3.83;76.91
77056;SHT30;67471;44.918;8.614;2023-12-20T03:46:09;3.80;77.54
77056;SHT30;67471;44.918;8.614;2023-12-20T03:49:12;3.76;77.30
77056;SHT30;67471;44.918;8.614;2023-12-20T03:52:16;3.79;77.19
77056;SHT30;67471;44.918;8.614;2023-12-20T03:55:20;3.67;77.65
77056;SHT30;67471;44.918;8.614;2023-12-20T03:58:24;3.66;77.90
77056;SHT30;67471;44.918;8.614;2023-12-20T04:01:28;3.71;77.78
77056;SHT30;67471;44.918;8.614;2023-12-20T04:04:31;3.83;77.76
77056;SHT30;67471;44.918;8.614;2023-12-20T04:07:36;3.79;76.95
77056;SHT30;67471;44.918;8.614;2023-12-20T04:10:39;3.67;77.57
77056;SHT30;67471;44.918;8.614;2023-12-20T04:13:43;3.76;77.64
77056;SHT30;67471;44.918;8.614;2023-12-20T04:16:47;3.79;77.51
77056;SHT30;67471;44.918;8.614;2023-12-20T04:19:51;3.83;77.42
77056;SHT30;67471;44.918;8.614;2023-12-20T04:22:55;3.86;77.45
77056;SHT30;67471;44.918;8.614;2023-12-20T04:25:59;3.80;77.47
77056;SHT30;67471;44.918;8.614;2023-12-20T04:29:02;3.91;77.38
77056;SHT30;67471;44.918;8.614;2023-12-20T04:32:06;3.90;77.46
77056;SHT30;67471;44.918;8.614;2023-12-20T04:35:10;4.02;76.87
77056;SHT30;67471;44.918;8.614;2023-12-20T04:38:13;3.93;77.00
77056;SHT30;67471;44.918;8.614;2023-12-20T04:41:17;4.05;76.56
77056;SHT30;67471;44.918;8.614;2023-12-20T04:44:21;4.01;76.81
77056;SHT30;67471;44.918;8.614;2023-12-20T04:47:25;4.07;76.88
77056;SHT30;67471;44.918;8.614;2023-12-20T04:50:29;4.08;77.20
77056;SHT30;67471;44.918;8.614;2023-12-20T04:53:33;4.17;76.27
77056;SHT30;67471;44.918;8.614;2023-12-20T04:56:36;4.15;76.72
77056;SHT30;67471;44.918;8.614;2023-12-20T04:59:40;4.08;76.80
77056;SHT30;67471;44.918;8.614;2023-12-20T05:02:45;3.97;76.98
77056;SHT30;67471;44.918;8.614;2023-12-20T05:05:49;3.83;77.60
77056;SHT30;67471;44.918;8.614;2023-12-20T05:08:53;3.71;77.93
77056;SHT30;67471;44.918;8.614;2023-12-20T05:11:57;4.00;76.78
77056;SHT30;67471;44.918;8.614;2023-12-20T05:15:00;3.97;76.57
77056;SHT30;67471;44.918;8.614;2023-12-20T05:18:04;3.93;76.00
77056;SHT30;67471;44.918;8.614;2023-12-20T05:21:08;3.74;76.91
77056;SHT30;67471;44.918;8.614;2023-12-20T05:24:12;3.69;77.52
77056;SHT30;67471;44.918;8.614;2023-12-20T05:27:16;3.76;77.54
77056;SHT30;67471;44.918;8.614;2023-12-20T05:30:20;3.88;76.46
77056;SHT30;67471;44.918;8.614;2023-12-20T05:33:23;3.79;76.51
77056;SHT30;67471;44.918;8.614;2023-12-20T05:36:28;3.63;76.86
77056;SHT30;67471;44.918;8.614;2023-12-20T05:39:31;3.53;76.87
77056;SHT30;67471;44.918;8.614;2023-12-20T05:42:36;3.42;77.85
77056;SHT30;67471;44.918;8.614;2023-12-20T05:45:41;3.29;77.99
77056;SHT30;67471;44.918;8.614;2023-12-20T05:48:45;2.77;81.25
77056;SHT30;67471;44.918;8.614;2023-12-20T05:51:49;3.01;79.90
77056;SHT30;67471;44.918;8.614;2023-12-20T05:54:54;2.57;80.84
77056;SHT30;67471;44.918;8.614;2023-12-20T05:57:59;2.60;82.05
77056;SHT30;67471;44.918;8.614;2023-12-20T06:01:04;2.89;80.72
77056;SHT30;67471;44.918;8.614;2023-12-20T06:04:08;2.81;80.88
77056;SHT30;67471;44.918;8.614;2023-12-20T06:07:13;3.08;80.30
77056;SHT30;67471;44.918;8.614;2023-12-20T06:10:17;3.25;79.80
77056;SHT30;67471;44.918;8.614;2023-12-20T06:13:20;3.39;79.50
77056;SHT30;67471;44.918;8.614;2023-12-20T06:16:24;3.56;78.91
77056;SHT30;67471;44.918;8.614;2023-12-20T06:19:28;3.79;78.32
77056;SHT30;67471;44.918;8.614;2023-12-20T06:22:33;3.77;78.72
77056;SHT30;67471;44.918;8.614;2023-12-20T06:25:37;3.74;79.03
77056;SHT30;67471;44.918;8.614;2023-12-20T06:28:41;3.74;78.68
77056;SHT30;67471;44.918;8.614;2023-12-20T06:31:45;3.80;78.41
77056;SHT30;67471;44.918;8.614;2023-12-20T06:34:49;3.71;79.03
77056;SHT30;67471;44.918;8.614;2023-12-20T06:37:52;3.62;79.62
77056;SHT30;67471;44.918;8.614;2023-12-20T06:40:56;3.81;78.75
77056;SHT30;67471;44.918;8.614;2023-12-20T06:44:01;3.69;78.60
77056;SHT30;67471;44.918;8.614;2023-12-20T06:47:05;3.70;78.59
77056;SHT30;67471;44.918;8.614;2023-12-20T06:50:09;3.16;80.02
77056;SHT30;67471;44.918;8.614;2023-12-20T06:53:12;3.16;80.70
77056;SHT30;67471;44.918;8.614;2023-12-20T06:56:16;3.38;80.22
77056;SHT30;67471;44.918;8.614;2023-12-20T06:59:20;3.67;79.21
77056;SHT30;67471;44.918;8.614;2023-12-20T07:02:24;3.80;78.20
77056;SHT30;67471;44.918;8.614;2023-12-20T07:05:28;3.81;78.44
77056;SHT30;67471;44.918;8.614;2023-12-20T07:08:32;3.94;78.34
77056;SHT30;67471;44.918;8.614;2023-12-20T07:11:36;3.98;78.36
77056;SHT30;67471;44.918;8.614;2023-12-20T07:14:39;4.07;78.12
77056;SHT30;67471;44.918;8.614;2023-12-20T07:17:43;3.90;79.06
77056;SHT30;67471;44.918;8.614;2023-12-20T07:20:47;3.57;80.31
77056;SHT30;67471;44.918;8.614;2023-12-20T07:23:52;3.83;79.53
77056;SHT30;67471;44.918;8.614;2023-12-20T07:26:56;3.60;80.78
77056;SHT30;67471;44.918;8.614;2023-12-20T07:29:59;3.63;80.86
77056;SHT30;67471;44.918;8.614;2023-12-20T07:33:03;3.50;81.00
77056;SHT30;67471;44.918;8.614;2023-12-20T07:36:07;3.29;82.11
77056;SHT30;67471;44.918;8.614;2023-12-20T07:39:11;3.32;82.24
77056;SHT30;67471;44.918;8.614;2023-12-20T07:42:15;3.26;81.97
77056;SHT30;67471;44.918;8.614;2023-12-20T07:45:19;3.66;81.02
77056;SHT30;67471;44.918;8.614;2023-12-20T07:48:23;3.79;80.27
77056;SHT30;67471;44.918;8.614;2023-12-20T07:51:27;4.08;79.49
77056;SHT30;67471;44.918;8.614;2023-12-20T07:54:31;4.22;79.05
77056;SHT30;67471;44.918;8.614;2023-12-20T07:57:34;4.44;78.14
77056;SHT30;67471;44.918;8.614;2023-12-20T08:00:38;4.15;79.24
77056;SHT30;67471;44.918;8.614;2023-12-20T08:03:42;4.21;79.28
77056;SHT30;67471;44.918;8.614;2023-12-20T08:06:46;4.10;79.28
77056;SHT30;67471;44.918;8.614;2023-12-20T08:09:50;4.12;79.94
77056;SHT30;67471;44.918;8.614;2023-12-20T08:12:54;4.14;80.50
77056;SHT30;67471;44.918;8.614;2023-12-20T08:15:58;4.46;80.02
77056;SHT30;67471;44.918;8.614;2023-12-20T08:19:03;4.41;80.29
77056;SHT30;67471;44.918;8.614;2023-12-20T08:22:06;4.73;79.04
77056;SHT30;67471;44.918;8.614;2023-12-20T08:25:10;4.90;78.28
77056;SHT30;67471;44.918;8.614;2023-12-20T08:28:14;4.83;78.18
77056;SHT30;67471;44.918;8.614;2023-12-20T08:31:19;5.01;77.70
77056;SHT30;67471;44.918;8.614;2023-12-20T08:34:23;5.14;77.17
77056;SHT30;67471;44.918;8.614;2023-12-20T08:37:27;5.35;76.99
77056;SHT30;67471;44.918;8.614;2023-12-20T08:40:30;5.41;76.86
77056;SHT30;67471;44.918;8.614;2023-12-20T08:43:35;5.54;76.09
77056;SHT30;67471;44.918;8.614;2023-12-20T08:46:39;5.49;75.93
77056;SHT30;67471;44.918;8.614;2023-12-20T08:49:44;5.45;75.90
77056;SHT30;67471;44.918;8.614;2023-12-20T08:52:49;5.30;76.61
77056;SHT30;67471;44.918;8.614;2023-12-20T08:55:53;5.32;76.79
77056;SHT30;67471;44.918;8.614;2023-12-20T08:58:57;5.37;76.82
77056;SHT30;67471;44.918;8.614;2023-12-20T09:02:01;5.55;76.29
77056;SHT30;67471;44.918;8.614;2023-12-20T09:05:06;5.63;76.16
77056;SHT30;67471;44.918;8.614;2023-12-20T09:08:09;5.51;75.73
77056;SHT30;67471;44.918;8.614;2023-12-20T09:11:13;5.58;75.35
77056;SHT30;67471;44.918;8.614;2023-12-20T09:14:17;5.62;75.03
77056;SHT30;67471;44.918;8.614;2023-12-20T09:17:21;5.52;75.05
77056;SHT30;67471;44.918;8.614;2023-12-20T09:20:26;5.62;74.62
77056;SHT30;67471;44.918;8.614;2023-12-20T09:23:30;5.58;74.71
77056;SHT30;67471;44.918;8.614;2023-12-20T09:26:34;5.58;74.63
77056;SHT30;67471;44.918;8.614;2023-12-20T09:29:38;5.63;74.31
77056;SHT30;67471;44.918;8.614;2023-12-20T09:32:42;5.59;73.98
77056;SHT30;67471;44.918;8.614;2023-12-20T09:35:46;5.55;74.06
77056;SHT30;67471;44.918;8.614;2023-12-20T09:38:50;5.47;74.36
77056;SHT30;67471;44.918;8.614;2023-12-20T09:42:00;5.38;74.64
77056;SHT30;67471;44.918;8.614;2023-12-20T09:45:08;5.44;74.53
77056;SHT30;67471;44.918;8.614;2023-12-20T09:48:13;5.35;74.71
77056;SHT30;67471;44.918;8.614;2023-12-20T09:51:19;5.49;74.74
77056;SHT30;67471;44.918;8.614;2023-12-20T09:54:25;5.55;74.44
77056;SHT30;67471;44.918;8.614;2023-12-20T09:57:29;5.62;73.81
77056;SHT30;67471;44.918;8.614;2023-12-20T10:00:36;5.49;73.93
77056;SHT30;67471;44.918;8.614;2023-12-20T10:03:40;5.69;73.78
77056;SHT30;67471;44.918;8.614;2023-12-20T10:06:44;5.66;73.96
77056;SHT30;67471;44.918;8.614;2023-12-20T10:09:48;5.80;73.68
77056;SHT30;67471;44.918;8.614;2023-12-20T10:13:07;5.99;73.44
77056;SHT30;67471;44.918;8.614;2023-12-20T10:16:12;6.11;73.28
77056;SHT30;67471;44.918;8.614;2023-12-20T10:19:19;6.05;73.71
77056;SHT30;67471;44.918;8.614;2023-12-20T10:22:23;6.14;73.55
77056;SHT30;67471;44.918;8.614;2023-12-20T10:25:27;6.36;72.79
77056;SHT30;67471;44.918;8.614;2023-12-20T10:28:34;6.10;74.06
77056;SHT30;67471;44.918;8.614;2023-12-20T10:31:38;6.31;72.97
77056;SHT30;67471;44.918;8.614;2023-12-20T10:34:42;6.34;73.66
77056;SHT30;67471;44.918;8.614;2023-12-20T10:37:46;6.41;73.17
77056;SHT30;67471;44.918;8.614;2023-12-20T10:40:54;6.52;72.61
77056;SHT30;67471;44.918;8.614;2023-12-20T10:44:01;6.55;72.51
77056;SHT30;67471;44.918;8.614;2023-12-20T10:47:06;6.63;72.45
77056;SHT30;67471;44.918;8.614;2023-12-20T10:50:10;6.72;72.03
77056;SHT30;67471;44.918;8.614;2023-12-20T10:53:14;6.52;72.44
77056;SHT30;67471;44.918;8.614;2023-12-20T10:56:19;6.54;72.60
77056;SHT30;67471;44.918;8.614;2023-12-20T10:59:24;6.60;72.28
77056;SHT30;67471;44.918;8.614;2023-12-20T11:02:37;6.58;72.59
77056;SHT30;67471;44.918;8.614;2023-12-20T11:09:26;6.87;72.47
77056;SHT30;67471;44.918;8.614;2023-12-20T11:15:43;7.09;71.90
77056;SHT30;67471;44.918;8.614;2023-12-20T11:18:47;7.09;71.91
77056;SHT30;67471;44.918;8.614;2023-12-20T11:21:54;7.20;71.56
77056;SHT30;67471;44.918;8.614;2023-12-20T11:25:02;7.49;71.01
77056;SHT30;67471;44.918;8.614;2023-12-20T11:28:10;7.64;70.29
77056;SHT30;67471;44.918;8.614;2023-12-20T11:31:15;7.82;70.05
77056;SHT30;67471;44.918;8.614;2023-12-20T11:34:19;7.98;69.25
77056;SHT30;67471;44.918;8.614;2023-12-20T11:37:31;8.12;68.25
77056;SHT30;67471;44.918;8.614;2023-12-20T11:40:36;8.09;68.90
77056;SHT30;67471;44.918;8.614;2023-12-20T11:43:39;8.18;68.61
77056;SHT30;67471;44.918;8.614;2023-12-20T11:46:44;8.36;68.06
77056;SHT30;67471;44.918;8.614;2023-12-20T11:49:48;8.50;67.58
77056;SHT30;67471;44.918;8.614;2023-12-20T11:52:52;8.62;67.19
77056;SHT30;67471;44.918;8.614;2023-12-20T11:55:57;8.67;67.18
77056;SHT30;67471;44.918;8.614;2023-12-20T11:59:01;8.72;66.99
77056;SHT30;67471;44.918;8.614;2023-12-20T12:02:05;8.83;67.01
77056;SHT30;67471;44.918;8.614;2023-12-20T12:05:09;8.74;67.23
77056;SHT30;67471;44.918;8.614;2023-12-20T12:08:13;8.59;67.93
77056;SHT30;67471;44.918;8.614;2023-12-20T12:11:17;8.77;67.93
77056;SHT30;67471;44.918;8.614;2023-12-20T12:14:21;8.70;68.33
77056;SHT30;67471;44.918;8.614;2023-12-20T12:17:24;8.83;68.17
77056;SHT30;67471;44.918;8.614;2023-12-20T12:20:29;8.80;68.11
77056;SHT30;67471;44.918;8.614;2023-12-20T12:23:33;8.83;68.68
77056;SHT30;67471;44.918;8.614;2023-12-20T12:26:37;8.85;68.55
77056;SHT30;67471;44.918;8.614;2023-12-20T12:30:00;8.93;68.72
77056;SHT30;67471;44.918;8.614;2023-12-20T12:33:04;8.72;69.35
77056;SHT30;67471;44.918;8.614;2023-12-20T12:36:08;8.74;69.40
77056;SHT30;67471;44.918;8.614;2023-12-20T12:39:12;8.72;69.21
77056;SHT30;67471;44.918;8.614;2023-12-20T12:42:18;8.77;69.42
77056;SHT30;67471;44.918;8.614;2023-12-20T12:45:23;8.88;68.95
77056;SHT30;67471;44.918;8.614;2023-12-20T12:48:28;8.81;68.88
77056;SHT30;67471;44.918;8.614;2023-12-20T12:51:32;8.73;69.57
77056;SHT30;67471;44.918;8.614;2023-12-20T12:54:36;8.60;69.77
77056;SHT30;67471;44.918;8.614;2023-12-20T12:57:40;8.73;69.54
77056;SHT30;67471;44.918;8.614;2023-12-20T13:00:44;8.83;69.58
77056;SHT30;67471;44.918;8.614;2023-12-20T13:03:47;8.85;69.62
77056;SHT30;67471;44.918;8.614;2023-12-20T13:06:51;8.73;69.82
77056;SHT30;67471;44.918;8.614;2023-12-20T13:09:55;8.63;70.46
77056;SHT30;67471;44.918;8.614;2023-12-20T13:12:59;8.69;70.21
77056;SHT30;67471;44.918;8.614;2023-12-20T13:16:02;8.87;70.18
77056;SHT30;67471;44.918;8.614;2023-12-20T13:19:06;8.76;70.88
77056;SHT30;67471;44.918;8.614;2023-12-20T13:22:10;9.01;70.48
77056;SHT30;67471;44.918;8.614;2023-12-20T13:25:14;9.15;69.88
77056;SHT30;67471;44.918;8.614;2023-12-20T13:28:17;9.15;69.61
77056;SHT30;67471;44.918;8.614;2023-12-20T13:31:21;9.51;68.67
77056;SHT30;67471;44.918;8.614;2023-12-20T13:34:25;9.66;68.07
77056;SHT30;67471;44.918;8.614;2023-12-20T13:37:29;9.85;67.34
77056;SHT30;67471;44.918;8.614;2023-12-20T13:40:33;9.97;66.94
77056;SHT30;67471;44.918;8.614;2023-12-20T13:43:36;9.72;67.02
77056;SHT30;67471;44.918;8.614;2023-12-20T13:46:41;10.03;66.56
77056;SHT30;67471;44.918;8.614;2023-12-20T13:49:45;10.13;66.26
77056;SHT30;67471;44.918;8.614;2023-12-20T13:52:48;10.27;65.48
77056;SHT30;67471;44.918;8.614;2023-12-20T13:55:52;10.25;65.59
77056;SHT30;67471;44.918;8.614;2023-12-20T13:58:56;9.80;66.56
77056;SHT30;67471;44.918;8.614;2023-12-20T14:02:00;9.80;67.14
77056;SHT30;67471;44.918;8.614;2023-12-20T14:05:05;9.78;66.99
77056;SHT30;67471;44.918;8.614;2023-12-20T14:08:09;9.65;67.23
77056;SHT30;67471;44.918;8.614;2023-12-20T14:11:13;10.13;66.08
77056;SHT30;67471;44.918;8.614;2023-12-20T14:14:18;10.24;65.77
77056;SHT30;67471;44.918;8.614;2023-12-20T14:17:22;9.94;66.81
77056;SHT30;67471;44.918;8.614;2023-12-20T14:20:26;10.27;66.09
77056;SHT30;67471;44.918;8.614;2023-12-20T14:23:30;10.51;65.42
77056;SHT30;67471;44.918;8.614;2023-12-20T14:26:34;10.51;65.11
77056;SHT30;67471;44.918;8.614;2023-12-20T14:29:38;10.48;65.34
77056;SHT30;67471;44.918;8.614;2023-12-20T14:32:42;10.50;65.28
77056;SHT30;67471;44.918;8.614;2023-12-20T14:35:45;10.52;65.41
77056;SHT30;67471;44.918;8.614;2023-12-20T14:38:49;10.47;65.74
77056;SHT30;67471;44.918;8.614;2023-12-20T14:41:53;10.42;66.06
77056;SHT30;67471;44.918;8.614;2023-12-20T14:44:58;10.07;66.96
77056;SHT30;67471;44.918;8.614;2023-12-20T14:48:01;10.10;67.00
77056;SHT30;67471;44.918;8.614;2023-12-20T14:51:05;10.16;66.80
77056;SHT30;67471;44.918;8.614;2023-12-20T14:54:09;9.83;67.72
77056;SHT30;67471;44.918;8.614;2023-12-20T14:57:13;9.89;67.58
77056;SHT30;67471;44.918;8.614;2023-12-20T15:00:17;9.93;67.78
77056;SHT30;67471;44.918;8.614;2023-12-20T15:03:22;9.99;67.71
77056;SHT30;67471;44.918;8.614;2023-12-20T15:06:26;10.04;68.12
77056;SHT30;67471;44.918;8.614;2023-12-20T15:09:30;9.96;68.59
77056;SHT30;67471;44.918;8.614;2023-12-20T15:12:34;9.94;69.15
77056;SHT30;67471;44.918;8.614;2023-12-20T15:15:38;9.66;70.41
77056;SHT30;67471;44.918;8.614;2023-12-20T15:18:41;8.99;73.26
77056;SHT30;67471;44.918;8.614;2023-12-20T15:21:45;8.81;74.29
77056;SHT30;67471;44.918;8.614;2023-12-20T15:24:49;8.52;75.11
77056;SHT30;67471;44.918;8.614;2023-12-20T15:27:55;8.56;75.12
77056;SHT30;67471;44.918;8.614;2023-12-20T15:30:59;8.36;76.02
77056;SHT30;67471;44.918;8.614;2023-12-20T15:34:02;8.66;74.75
77056;SHT30;67471;44.918;8.614;2023-12-20T15:37:07;8.66;74.21
77056;SHT30;67471;44.918;8.614;2023-12-20T15:40:11;8.49;74.62
77056;SHT30;67471;44.918;8.614;2023-12-20T15:43:15;8.29;75.57
77056;SHT30;67471;44.918;8.614;2023-12-20T15:46:19;8.42;74.90
77056;SHT30;67471;44.918;8.614;2023-12-20T15:49:23;7.95;76.78
77056;SHT30;67471;44.918;8.614;2023-12-20T15:52:27;7.85;77.07
77056;SHT30;67471;44.918;8.614;2023-12-20T15:55:30;7.74;77.70
77056;SHT30;67471;44.918;8.614;2023-12-20T15:58:34;7.78;77.58
77056;SHT30;67471;44.918;8.614;2023-12-20T16:01:38;8.02;76.49
77056;SHT30;67471;44.918;8.614;2023-12-20T16:04:42;7.90;77.42
77056;SHT30;67471;44.918;8.614;2023-12-20T16:07:46;7.63;78.51
77056;SHT30;67471;44.918;8.614;2023-12-20T16:10:49;7.84;77.61
77056;SHT30;67471;44.918;8.614;2023-12-20T16:13:53;7.56;78.74
77056;SHT30;67471;44.918;8.614;2023-12-20T16:16:57;7.67;78.12
77056;SHT30;67471;44.918;8.614;2023-12-20T16:20:02;7.88;77.09
77056;SHT30;67471;44.918;8.614;2023-12-20T16:23:07;7.40;79.06
77056;SHT30;67471;44.918;8.614;2023-12-20T16:26:12;7.54;78.60
77056;SHT30;67471;44.918;8.614;2023-12-20T16:29:16;7.49;78.87
77056;SHT30;67471;44.918;8.614;2023-12-20T16:32:20;7.51;78.60
77056;SHT30;67471;44.918;8.614;2023-12-20T16:35:24;7.50;78.66
77056;SHT30;67471;44.918;8.614;2023-12-20T16:38:28;7.30;79.48
77056;SHT30;67471;44.918;8.614;2023-12-20T16:41:32;7.02;80.86
77056;SHT30;67471;44.918;8.614;2023-12-20T16:44:35;6.93;81.19
77056;SHT30;67471;44.918;8.614;2023-12-20T16:47:39;6.82;81.80
77056;SHT30;67471;44.918;8.614;2023-12-20T16:50:43;6.87;81.34
77056;SHT30;67471;44.918;8.614;2023-12-20T16:53:48;6.82;81.74
77056;SHT30;67471;44.918;8.614;2023-12-20T16:56:51;7.02;80.96
77056;SHT30;67471;44.918;8.614;2023-12-20T16:59:55;7.24;80.21
77056;SHT30;67471;44.918;8.614;2023-12-20T17:02:59;7.42;79.59
77056;SHT30;67471;44.918;8.614;2023-12-20T17:06:03;7.39;79.31
77056;SHT30;67471;44.918;8.614;2023-12-20T17:09:07;7.56;78.50
77056;SHT30;67471;44.918;8.614;2023-12-20T17:12:11;7.42;78.84
77056;SHT30;67471;44.918;8.614;2023-12-20T17:15:15;7.19;79.81
77056;SHT30;67471;44.918;8.614;2023-12-20T17:18:19;6.93;80.80
77056;SHT30;67471;44.918;8.614;2023-12-20T17:21:22;6.84;81.11
77056;SHT30;67471;44.918;8.614;2023-12-20T17:24:27;6.79;81.21
77056;SHT30;67471;44.918;8.614;2023-12-20T17:27:30;7.09;80.28
77056;SHT30;67471;44.918;8.614;2023-12-20T17:30:34;6.89;80.87
77056;SHT30;67471;44.918;8.614;2023-12-20T17:33:38;7.12;80.29
77056;SHT30;67471;44.918;8.614;2023-12-20T17:36:42;7.26;79.22
77056;SHT30;67471;44.918;8.614;2023-12-20T17:39:47;7.34;78.67
77056;SHT30;67471;44.918;8.614;2023-12-20T17:42:50;7.34;78.34
77056;SHT30;67471;44.918;8.614;2023-12-20T17:45:54;7.33;78.13
77056;SHT30;67471;44.918;8.614;2023-12-20T17:48:58;7.27;77.86
77056;SHT30;67471;44.918;8.614;2023-12-20T17:52:04;7.22;77.76
77056;SHT30;67471;44.918;8.614;2023-12-20T17:55:09;7.08;77.73
77056;SHT30;67471;44.918;8.614;2023-12-20T17:58:13;7.03;77.71
77056;SHT30;67471;44.918;8.614;2023-12-20T18:01:17;6.95;77.64
77056;SHT30;67471;44.918;8.614;2023-12-20T18:04:20;6.84;77.98
77056;SHT30;67471;44.918;8.614;2023-12-20T18:07:25;6.77;78.14
77056;SHT30;67471;44.918;8.614;2023-12-20T18:10:29;6.72;78.04
77056;SHT30;67471;44.918;8.614;2023-12-20T18:13:33;6.71;77.79
77056;SHT30;67471;44.918;8.614;2023-12-20T18:16:37;6.77;77.52
77056;SHT30;67471;44.918;8.614;2023-12-20T18:19:41;6.58;78.29
77056;SHT30;67471;44.918;8.614;2023-12-20T18:22:45;6.51;78.37
77056;SHT30;67471;44.918;8.614;2023-12-20T18:25:48;6.47;78.62
77056;SHT30;67471;44.918;8.614;2023-12-20T18:28:54;6.41;78.65
77056;SHT30;67471;44.918;8.614;2023-12-20T18:31:58;6.41;78.47
77056;SHT30;67471;44.918;8.614;2023-12-20T18:35:02;6.29;78.62
77056;SHT30;67471;44.918;8.614;2023-12-20T18:38:06;6.19;78.66
77056;SHT30;67471;44.918;8.614;2023-12-20T18:41:10;6.14;78.40
77056;SHT30;67471;44.918;8.614;2023-12-20T18:44:17;6.13;78.33
77056;SHT30;67471;44.918;8.614;2023-12-20T18:47:22;6.00;78.86
77056;SHT30;67471;44.918;8.614;2023-12-20T18:50:26;6.06;78.98
77056;SHT30;67471;44.918;8.614;2023-12-20T18:53:29;6.00;79.11
77056;SHT30;67471;44.918;8.614;2023-12-20T18:56:33;5.98;79.37
77056;SHT30;67471;44.918;8.614;2023-12-20T18:59:41;5.88;79.60
77056;SHT30;67471;44.918;8.614;2023-12-20T19:02:45;5.95;79.54
77056;SHT30;67471;44.918;8.614;2023-12-20T19:05:49;5.90;79.60
77056;SHT30;67471;44.918;8.614;2023-12-20T19:08:53;5.83;80.26
77056;SHT30;67471;44.918;8.614;2023-12-20T19:11:57;5.80;79.63
77056;SHT30;67471;44.918;8.614;2023-12-20T19:15:01;5.71;80.26
77056;SHT30;67471;44.918;8.614;2023-12-20T19:18:05;5.73;79.96
77056;SHT30;67471;44.918;8.614;2023-12-20T19:21:09;5.68;80.25
77056;SHT30;67471;44.918;8.614;2023-12-20T19:24:13;5.79;79.74
77056;SHT30;67471;44.918;8.614;2023-12-20T19:27:17;5.82;79.68
77056;SHT30;67471;44.918;8.614;2023-12-20T19:30:21;5.82;79.17
77056;SHT30;67471;44.918;8.614;2023-12-20T19:33:25;5.75;79.63
77056;SHT30;67471;44.918;8.614;2023-12-20T19:36:29;5.65;79.95
77056;SHT30;67471;44.918;8.614;2023-12-20T19:39:32;5.55;80.02
77056;SHT30;67471;44.918;8.614;2023-12-20T19:42:37;5.75;79.28
77056;SHT30;67471;44.918;8.614;2023-12-20T19:45:43;5.73;79.67
77056;SHT30;67471;44.918;8.614;2023-12-20T19:48:47;5.65;79.62